sensor_id;sensor_type;location;lat;lon;timestamp;P1;durP1;ratioP1;P2;durP2;ratioP2
42912;SDS011;50720;54.324;18.558;2023-02-28T00:00:01;104.10;;;43.20;;
42912;SDS011;50720;54.324;18.558;2023-02-28T00:02:57;100.57;;;42.42;;
42912;SDS011;50720;54.324;18.558;2023-02-28T00:05:27;99.93;;;41.47;;
42912;SDS011;50720;54.324;18.558;2023-02-28T00:07:59;110.68;;;49.95;;
42912;SDS011;50720;54.324;18.558;2023-02-28T00:10:29;113.60;;;42.67;;
42912;SDS011;50720;54.324;18.558;2023-02-28T00:13:00;104.88;;;40.20;;
42912;SDS011;50720;54.324;18.558;2023-02-28T00:15:31;88.57;;;38.90;;
42912;SDS011;50720;54.324;18.558;2023-02-28T00:18:01;100.28;;;42.15;;
42912;SDS011;50720;54.324;18.558;2023-02-28T00:20:32;96.80;;;41.72;;
42912;SDS011;50720;54.324;18.558;2023-02-28T00:23:02;85.32;;;35.88;;
42912;SDS011;50720;54.324;18.558;2023-02-28T00:25:32;100.57;;;41.25;;
42912;SDS011;50720;54.324;18.558;2023-02-28T00:28:01;97.60;;;41.90;;
42912;SDS011;50720;54.324;18.558;2023-02-28T00:30:32;82.60;;;34.97;;
42912;SDS011;50720;54.324;18.558;2023-02-28T00:33:01;85.85;;;35.53;;
42912;SDS011;50720;54.324;18.558;2023-02-28T00:35:31;88.47;;;34.77;;
42912;SDS011;50720;54.324;18.558;2023-02-28T00:38:02;79.93;;;34.97;;
42912;SDS011;50720;54.324;18.558;2023-02-28T00:40:32;78.35;;;32.45;;
42912;SDS011;50720;54.324;18.558;2023-02-28T00:43:02;82.65;;;36.03;;
42912;SDS011;50720;54.324;18.558;2023-02-28T00:45:32;97.53;;;37.85;;
42912;SDS011;50720;54.324;18.558;2023-02-28T00:48:02;95.10;;;38.92;;
42912;SDS011;50720;54.324;18.558;2023-02-28T00:50:32;87.03;;;36.05;;
42912;SDS011;50720;54.324;18.558;2023-02-28T00:53:03;96.18;;;38.65;;
42912;SDS011;50720;54.324;18.558;2023-02-28T00:55:33;82.13;;;33.80;;
42912;SDS011;50720;54.324;18.558;2023-02-28T00:58:02;78.55;;;35.20;;
42912;SDS011;50720;54.324;18.558;2023-02-28T01:00:33;95.68;;;37.38;;
42912;SDS011;50720;54.324;18.558;2023-02-28T01:03:02;93.35;;;39.92;;
42912;SDS011;50720;54.324;18.558;2023-02-28T01:05:33;92.05;;;38.22;;
42912;SDS011;50720;54.324;18.558;2023-02-28T01:08:04;100.90;;;39.78;;
42912;SDS011;50720;54.324;18.558;2023-02-28T01:10:34;99.45;;;41.80;;
42912;SDS011;50720;54.324;18.558;2023-02-28T01:13:03;99.30;;;40.75;;
42912;SDS011;50720;54.324;18.558;2023-02-28T01:15:33;94.50;;;40.58;;
42912;SDS011;50720;54.324;18.558;2023-02-28T01:18:03;100.70;;;41.22;;
42912;SDS011;50720;54.324;18.558;2023-02-28T01:20:32;102.68;;;39.67;;
42912;SDS011;50720;54.324;18.558;2023-02-28T01:23:05;102.13;;;38.35;;
42912;SDS011;50720;54.324;18.558;2023-02-28T01:25:35;96.13;;;40.60;;
42912;SDS011;50720;54.324;18.558;2023-02-28T01:28:06;94.05;;;40.85;;
42912;SDS011;50720;54.324;18.558;2023-02-28T01:30:35;116.68;;;44.08;;
42912;SDS011;50720;54.324;18.558;2023-02-28T01:33:05;95.30;;;40.63;;
42912;SDS011;50720;54.324;18.558;2023-02-28T01:35:35;102.38;;;38.97;;
42912;SDS011;50720;54.324;18.558;2023-02-28T01:38:06;93.50;;;38.72;;
42912;SDS011;50720;54.324;18.558;2023-02-28T01:40:49;107.25;;;41.22;;
42912;SDS011;50720;54.324;18.558;2023-02-28T01:43:20;91.60;;;38.67;;
42912;SDS011;50720;54.324;18.558;2023-02-28T01:45:52;88.65;;;37.20;;
42912;SDS011;50720;54.324;18.558;2023-02-28T01:48:23;94.75;;;38.75;;
42912;SDS011;50720;54.324;18.558;2023-02-28T01:50:55;86.18;;;36.53;;
42912;SDS011;50720;54.324;18.558;2023-02-28T01:53:31;91.10;;;35.97;;
42912;SDS011;50720;54.324;18.558;2023-02-28T01:56:05;86.05;;;36.95;;
42912;SDS011;50720;54.324;18.558;2023-02-28T01:58:37;83.53;;;34.30;;
42912;SDS011;50720;54.324;18.558;2023-02-28T02:01:07;72.80;;;33.33;;
42912;SDS011;50720;54.324;18.558;2023-02-28T02:03:36;74.80;;;34.13;;
42912;SDS011;50720;54.324;18.558;2023-02-28T02:06:07;79.47;;;34.95;;
42912;SDS011;50720;54.324;18.558;2023-02-28T02:08:38;86.13;;;32.75;;
42912;SDS011;50720;54.324;18.558;2023-02-28T02:11:08;83.05;;;31.65;;
42912;SDS011;50720;54.324;18.558;2023-02-28T02:13:48;73.90;;;32.95;;
42912;SDS011;50720;54.324;18.558;2023-02-28T02:16:39;87.20;;;34.60;;
42912;SDS011;50720;54.324;18.558;2023-02-28T02:19:44;78.22;;;31.83;;
42912;SDS011;50720;54.324;18.558;2023-02-28T02:22:46;74.15;;;33.30;;
42912;SDS011;50720;54.324;18.558;2023-02-28T02:25:44;79.53;;;33.45;;
42912;SDS011;50720;54.324;18.558;2023-02-28T02:28:35;84.60;;;33.22;;
42912;SDS011;50720;54.324;18.558;2023-02-28T02:37:24;73.25;;;28.30;;
42912;SDS011;50720;54.324;18.558;2023-02-28T02:40:00;68.55;;;30.42;;
42912;SDS011;50720;54.324;18.558;2023-02-28T02:42:36;75.43;;;29.75;;
42912;SDS011;50720;54.324;18.558;2023-02-28T02:45:13;73.18;;;27.98;;
42912;SDS011;50720;54.324;18.558;2023-02-28T02:47:47;56.17;;;24.55;;
42912;SDS011;50720;54.324;18.558;2023-02-28T02:50:22;72.90;;;27.25;;
42912;SDS011;50720;54.324;18.558;2023-02-28T02:52:55;65.35;;;26.45;;
42912;SDS011;50720;54.324;18.558;2023-02-28T02:55:27;70.05;;;27.83;;
42912;SDS011;50720;54.324;18.558;2023-02-28T02:57:58;71.07;;;28.17;;
42912;SDS011;50720;54.324;18.558;2023-02-28T03:00:32;51.60;;;20.52;;
42912;SDS011;50720;54.324;18.558;2023-02-28T03:03:04;56.63;;;22.50;;
42912;SDS011;50720;54.324;18.558;2023-02-28T03:05:39;56.28;;;23.48;;
42912;SDS011;50720;54.324;18.558;2023-02-28T03:08:13;63.80;;;23.05;;
42912;SDS011;50720;54.324;18.558;2023-02-28T03:13:25;59.55;;;21.73;;
42912;SDS011;50720;54.324;18.558;2023-02-28T03:16:21;58.85;;;25.92;;
42912;SDS011;50720;54.324;18.558;2023-02-28T03:22:16;69.47;;;27.92;;
42912;SDS011;50720;54.324;18.558;2023-02-28T03:24:59;63.80;;;25.33;;
42912;SDS011;50720;54.324;18.558;2023-02-28T03:27:36;61.05;;;25.15;;
42912;SDS011;50720;54.324;18.558;2023-02-28T03:30:10;60.38;;;25.13;;
42912;SDS011;50720;54.324;18.558;2023-02-28T03:32:53;72.70;;;27.80;;
42912;SDS011;50720;54.324;18.558;2023-02-28T03:35:26;67.47;;;24.98;;
42912;SDS011;50720;54.324;18.558;2023-02-28T03:38:03;55.42;;;23.17;;
42912;SDS011;50720;54.324;18.558;2023-02-28T03:40:41;59.97;;;26.75;;
42912;SDS011;50720;54.324;18.558;2023-02-28T03:43:18;58.42;;;21.95;;
42912;SDS011;50720;54.324;18.558;2023-02-28T03:45:51;51.88;;;21.05;;
42912;SDS011;50720;54.324;18.558;2023-02-28T03:48:23;59.55;;;24.17;;
42912;SDS011;50720;54.324;18.558;2023-02-28T03:50:59;52.67;;;23.35;;
42912;SDS011;50720;54.324;18.558;2023-02-28T03:53:32;49.85;;;21.88;;
42912;SDS011;50720;54.324;18.558;2023-02-28T03:56:05;51.53;;;19.73;;
42912;SDS011;50720;54.324;18.558;2023-02-28T03:58:41;53.75;;;20.08;;
42912;SDS011;50720;54.324;18.558;2023-02-28T04:01:17;44.28;;;17.65;;
42912;SDS011;50720;54.324;18.558;2023-02-28T04:03:50;46.33;;;16.80;;
42912;SDS011;50720;54.324;18.558;2023-02-28T04:06:21;45.67;;;18.30;;
42912;SDS011;50720;54.324;18.558;2023-02-28T04:08:53;40.40;;;17.00;;
42912;SDS011;50720;54.324;18.558;2023-02-28T04:11:23;47.15;;;19.58;;
42912;SDS011;50720;54.324;18.558;2023-02-28T04:13:59;41.35;;;16.15;;
42912;SDS011;50720;54.324;18.558;2023-02-28T04:16:29;38.22;;;14.73;;
42912;SDS011;50720;54.324;18.558;2023-02-28T04:19:02;37.33;;;16.75;;
42912;SDS011;50720;54.324;18.558;2023-02-28T04:21:34;34.55;;;14.93;;
42912;SDS011;50720;54.324;18.558;2023-02-28T04:24:08;32.17;;;13.73;;
42912;SDS011;50720;54.324;18.558;2023-02-28T04:26:41;33.33;;;13.35;;
42912;SDS011;50720;54.324;18.558;2023-02-28T04:29:13;35.47;;;14.25;;
42912;SDS011;50720;54.324;18.558;2023-02-28T04:31:46;30.55;;;11.98;;
42912;SDS011;50720;54.324;18.558;2023-02-28T04:34:17;30.10;;;12.52;;
42912;SDS011;50720;54.324;18.558;2023-02-28T04:36:47;35.38;;;16.05;;
42912;SDS011;50720;54.324;18.558;2023-02-28T04:39:38;30.23;;;13.45;;
42912;SDS011;50720;54.324;18.558;2023-02-28T04:42:08;33.22;;;12.88;;
42912;SDS011;50720;54.324;18.558;2023-02-28T04:44:38;28.63;;;12.90;;
42912;SDS011;50720;54.324;18.558;2023-02-28T04:47:08;32.78;;;13.93;;
42912;SDS011;50720;54.324;18.558;2023-02-28T04:49:38;35.20;;;14.27;;
42912;SDS011;50720;54.324;18.558;2023-02-28T04:52:08;37.10;;;14.65;;
42912;SDS011;50720;54.324;18.558;2023-02-28T04:54:40;37.40;;;13.30;;
42912;SDS011;50720;54.324;18.558;2023-02-28T04:57:09;24.90;;;12.25;;
42912;SDS011;50720;54.324;18.558;2023-02-28T04:59:39;25.88;;;12.27;;
42912;SDS011;50720;54.324;18.558;2023-02-28T05:02:09;33.35;;;15.50;;
42912;SDS011;50720;54.324;18.558;2023-02-28T05:04:39;32.13;;;13.80;;
42912;SDS011;50720;54.324;18.558;2023-02-28T05:07:08;31.85;;;14.15;;
42912;SDS011;50720;54.324;18.558;2023-02-28T05:09:39;33.60;;;13.48;;
42912;SDS011;50720;54.324;18.558;2023-02-28T05:12:09;38.08;;;14.70;;
42912;SDS011;50720;54.324;18.558;2023-02-28T05:14:39;27.00;;;12.68;;
42912;SDS011;50720;54.324;18.558;2023-02-28T05:17:09;32.75;;;14.27;;
42912;SDS011;50720;54.324;18.558;2023-02-28T05:19:39;31.70;;;13.77;;
42912;SDS011;50720;54.324;18.558;2023-02-28T05:22:12;31.08;;;14.10;;
42912;SDS011;50720;54.324;18.558;2023-02-28T05:24:45;30.00;;;13.23;;
42912;SDS011;50720;54.324;18.558;2023-02-28T05:27:14;31.98;;;12.52;;
42912;SDS011;50720;54.324;18.558;2023-02-28T05:29:44;32.42;;;13.95;;
42912;SDS011;50720;54.324;18.558;2023-02-28T05:32:13;28.42;;;12.23;;
42912;SDS011;50720;54.324;18.558;2023-02-28T05:34:43;28.23;;;12.65;;
42912;SDS011;50720;54.324;18.558;2023-02-28T05:37:13;32.60;;;13.75;;
42912;SDS011;50720;54.324;18.558;2023-02-28T05:39:45;31.33;;;14.60;;
42912;SDS011;50720;54.324;18.558;2023-02-28T05:42:15;34.47;;;13.55;;
42912;SDS011;50720;54.324;18.558;2023-02-28T05:44:45;33.83;;;14.80;;
42912;SDS011;50720;54.324;18.558;2023-02-28T05:47:15;30.38;;;13.93;;
42912;SDS011;50720;54.324;18.558;2023-02-28T05:49:45;39.10;;;14.30;;
42912;SDS011;50720;54.324;18.558;2023-02-28T05:52:14;29.27;;;12.70;;
42912;SDS011;50720;54.324;18.558;2023-02-28T05:54:47;27.33;;;12.57;;
42912;SDS011;50720;54.324;18.558;2023-02-28T05:57:16;29.10;;;12.15;;
42912;SDS011;50720;54.324;18.558;2023-02-28T05:59:51;27.80;;;11.00;;
42912;SDS011;50720;54.324;18.558;2023-02-28T06:02:20;30.17;;;12.10;;
42912;SDS011;50720;54.324;18.558;2023-02-28T06:04:50;27.38;;;11.77;;
42912;SDS011;50720;54.324;18.558;2023-02-28T06:07:20;25.35;;;11.82;;
42912;SDS011;50720;54.324;18.558;2023-02-28T06:09:52;28.52;;;12.07;;
42912;SDS011;50720;54.324;18.558;2023-02-28T06:12:22;22.58;;;9.95;;
42912;SDS011;50720;54.324;18.558;2023-02-28T06:14:52;25.75;;;10.73;;
42912;SDS011;50720;54.324;18.558;2023-02-28T06:17:22;23.83;;;10.85;;
42912;SDS011;50720;54.324;18.558;2023-02-28T06:19:51;23.90;;;10.63;;
42912;SDS011;50720;54.324;18.558;2023-02-28T06:22:21;22.00;;;11.05;;
42912;SDS011;50720;54.324;18.558;2023-02-28T06:24:52;22.02;;;10.10;;
42912;SDS011;50720;54.324;18.558;2023-02-28T06:27:23;25.42;;;10.77;;
42912;SDS011;50720;54.324;18.558;2023-02-28T06:29:53;23.45;;;9.55;;
42912;SDS011;50720;54.324;18.558;2023-02-28T06:32:23;25.30;;;9.65;;
42912;SDS011;50720;54.324;18.558;2023-02-28T06:34:53;16.70;;;7.88;;
42912;SDS011;50720;54.324;18.558;2023-02-28T06:37:24;16.98;;;7.82;;
42912;SDS011;50720;54.324;18.558;2023-02-28T06:39:56;19.50;;;9.05;;
42912;SDS011;50720;54.324;18.558;2023-02-28T06:42:26;20.27;;;8.18;;
42912;SDS011;50720;54.324;18.558;2023-02-28T06:44:58;29.00;;;9.05;;
42912;SDS011;50720;54.324;18.558;2023-02-28T06:47:30;18.05;;;7.30;;
42912;SDS011;50720;54.324;18.558;2023-02-28T06:50:01;16.08;;;7.55;;
42912;SDS011;50720;54.324;18.558;2023-02-28T06:52:31;18.58;;;8.02;;
42912;SDS011;50720;54.324;18.558;2023-02-28T06:55:05;19.52;;;8.95;;
42912;SDS011;50720;54.324;18.558;2023-02-28T06:57:36;16.20;;;8.48;;
42912;SDS011;50720;54.324;18.558;2023-02-28T07:00:06;17.58;;;8.60;;
42912;SDS011;50720;54.324;18.558;2023-02-28T07:02:37;21.48;;;9.48;;
42912;SDS011;50720;54.324;18.558;2023-02-28T07:05:07;21.17;;;9.00;;
42912;SDS011;50720;54.324;18.558;2023-02-28T07:07:37;16.17;;;7.25;;
42912;SDS011;50720;54.324;18.558;2023-02-28T07:10:12;17.48;;;6.80;;
42912;SDS011;50720;54.324;18.558;2023-02-28T07:12:46;15.85;;;7.18;;
42912;SDS011;50720;54.324;18.558;2023-02-28T07:15:16;16.10;;;6.55;;
42912;SDS011;50720;54.324;18.558;2023-02-28T07:17:45;15.55;;;6.65;;
42912;SDS011;50720;54.324;18.558;2023-02-28T07:20:15;18.90;;;7.22;;
42912;SDS011;50720;54.324;18.558;2023-02-28T07:22:45;17.33;;;8.73;;
42912;SDS011;50720;54.324;18.558;2023-02-28T07:25:24;20.08;;;8.93;;
42912;SDS011;50720;54.324;18.558;2023-02-28T07:27:55;16.60;;;7.18;;
42912;SDS011;50720;54.324;18.558;2023-02-28T07:30:26;15.18;;;7.53;;
42912;SDS011;50720;54.324;18.558;2023-02-28T07:32:56;16.63;;;7.18;;
42912;SDS011;50720;54.324;18.558;2023-02-28T07:35:25;22.02;;;10.27;;
42912;SDS011;50720;54.324;18.558;2023-02-28T07:37:55;18.85;;;8.55;;
42912;SDS011;50720;54.324;18.558;2023-02-28T07:40:28;14.18;;;7.95;;
42912;SDS011;50720;54.324;18.558;2023-02-28T07:42:58;15.65;;;7.55;;
42912;SDS011;50720;54.324;18.558;2023-02-28T07:45:29;20.52;;;10.25;;
42912;SDS011;50720;54.324;18.558;2023-02-28T07:48:01;15.60;;;8.23;;
42912;SDS011;50720;54.324;18.558;2023-02-28T07:50:31;23.90;;;9.48;;
42912;SDS011;50720;54.324;18.558;2023-02-28T07:53:01;15.17;;;7.87;;
42912;SDS011;50720;54.324;18.558;2023-02-28T07:55:33;17.63;;;8.57;;
42912;SDS011;50720;54.324;18.558;2023-02-28T07:58:02;22.73;;;8.02;;
42912;SDS011;50720;54.324;18.558;2023-02-28T08:00:32;17.77;;;8.02;;
42912;SDS011;50720;54.324;18.558;2023-02-28T08:03:02;15.10;;;7.30;;
42912;SDS011;50720;54.324;18.558;2023-02-28T08:05:31;14.85;;;7.55;;
42912;SDS011;50720;54.324;18.558;2023-02-28T08:08:01;19.70;;;8.13;;
42912;SDS011;50720;54.324;18.558;2023-02-28T08:10:30;19.35;;;8.23;;
42912;SDS011;50720;54.324;18.558;2023-02-28T08:13:01;19.60;;;9.02;;
42912;SDS011;50720;54.324;18.558;2023-02-28T08:15:31;22.55;;;10.18;;
42912;SDS011;50720;54.324;18.558;2023-02-28T08:18:00;20.38;;;9.85;;
42912;SDS011;50720;54.324;18.558;2023-02-28T08:20:31;20.85;;;9.27;;
42912;SDS011;50720;54.324;18.558;2023-02-28T08:23:00;23.08;;;10.85;;
42912;SDS011;50720;54.324;18.558;2023-02-28T08:25:30;19.30;;;9.85;;
42912;SDS011;50720;54.324;18.558;2023-02-28T08:28:00;18.45;;;8.80;;
42912;SDS011;50720;54.324;18.558;2023-02-28T08:30:31;19.58;;;7.85;;
42912;SDS011;50720;54.324;18.558;2023-02-28T08:33:01;20.02;;;8.35;;
42912;SDS011;50720;54.324;18.558;2023-02-28T08:35:31;18.92;;;8.82;;
42912;SDS011;50720;54.324;18.558;2023-02-28T08:38:00;21.88;;;10.00;;
42912;SDS011;50720;54.324;18.558;2023-02-28T08:40:31;21.35;;;8.77;;
42912;SDS011;50720;54.324;18.558;2023-02-28T08:43:01;15.98;;;8.20;;
42912;SDS011;50720;54.324;18.558;2023-02-28T08:45:31;17.33;;;7.20;;
42912;SDS011;50720;54.324;18.558;2023-02-28T08:48:01;15.35;;;6.90;;
42912;SDS011;50720;54.324;18.558;2023-02-28T08:50:30;15.55;;;6.57;;
42912;SDS011;50720;54.324;18.558;2023-02-28T08:53:00;17.73;;;6.88;;
42912;SDS011;50720;54.324;18.558;2023-02-28T08:55:29;15.98;;;6.90;;
42912;SDS011;50720;54.324;18.558;2023-02-28T08:57:59;14.32;;;5.80;;
42912;SDS011;50720;54.324;18.558;2023-02-28T09:00:30;12.85;;;7.65;;
42912;SDS011;50720;54.324;18.558;2023-02-28T09:03:00;25.00;;;7.55;;
42912;SDS011;50720;54.324;18.558;2023-02-28T09:05:29;12.82;;;6.57;;
42912;SDS011;50720;54.324;18.558;2023-02-28T09:07:59;14.48;;;6.35;;
42912;SDS011;50720;54.324;18.558;2023-02-28T09:10:29;16.50;;;7.35;;
42912;SDS011;50720;54.324;18.558;2023-02-28T09:12:58;12.23;;;6.30;;
42912;SDS011;50720;54.324;18.558;2023-02-28T09:15:29;13.43;;;5.05;;
42912;SDS011;50720;54.324;18.558;2023-02-28T09:17:58;9.60;;;5.13;;
42912;SDS011;50720;54.324;18.558;2023-02-28T09:20:28;11.43;;;4.93;;
42912;SDS011;50720;54.324;18.558;2023-02-28T09:22:58;12.27;;;4.88;;
42912;SDS011;50720;54.324;18.558;2023-02-28T09:25:27;9.07;;;4.38;;
42912;SDS011;50720;54.324;18.558;2023-02-28T09:27:57;16.52;;;6.00;;
42912;SDS011;50720;54.324;18.558;2023-02-28T09:30:29;13.85;;;6.45;;
42912;SDS011;50720;54.324;18.558;2023-02-28T09:32:59;10.52;;;5.55;;
42912;SDS011;50720;54.324;18.558;2023-02-28T09:35:28;15.70;;;6.22;;
42912;SDS011;50720;54.324;18.558;2023-02-28T09:37:59;12.98;;;5.53;;
42912;SDS011;50720;54.324;18.558;2023-02-28T09:40:30;14.85;;;6.95;;
42912;SDS011;50720;54.324;18.558;2023-02-28T09:42:59;17.17;;;6.93;;
42912;SDS011;50720;54.324;18.558;2023-02-28T09:45:31;18.15;;;7.57;;
42912;SDS011;50720;54.324;18.558;2023-02-28T09:48:04;17.45;;;7.57;;
42912;SDS011;50720;54.324;18.558;2023-02-28T09:50:40;16.00;;;7.32;;
42912;SDS011;50720;54.324;18.558;2023-02-28T09:53:15;21.10;;;7.78;;
42912;SDS011;50720;54.324;18.558;2023-02-28T09:55:51;15.18;;;7.10;;
42912;SDS011;50720;54.324;18.558;2023-02-28T09:58:26;17.08;;;6.20;;
42912;SDS011;50720;54.324;18.558;2023-02-28T10:01:03;13.73;;;5.68;;
42912;SDS011;50720;54.324;18.558;2023-02-28T10:03:36;15.93;;;5.93;;
42912;SDS011;50720;54.324;18.558;2023-02-28T10:06:11;12.93;;;6.13;;
42912;SDS011;50720;54.324;18.558;2023-02-28T10:08:47;16.67;;;6.43;;
42912;SDS011;50720;54.324;18.558;2023-02-28T10:11:24;11.85;;;4.68;;
42912;SDS011;50720;54.324;18.558;2023-02-28T10:13:56;11.55;;;5.60;;
42912;SDS011;50720;54.324;18.558;2023-02-28T10:16:34;12.77;;;5.38;;
42912;SDS011;50720;54.324;18.558;2023-02-28T10:19:09;5.80;;;2.95;;
42912;SDS011;50720;54.324;18.558;2023-02-28T10:21:44;7.40;;;2.85;;
42912;SDS011;50720;54.324;18.558;2023-02-28T10:24:20;9.30;;;3.20;;
42912;SDS011;50720;54.324;18.558;2023-02-28T10:26:58;11.38;;;3.95;;
42912;SDS011;50720;54.324;18.558;2023-02-28T10:29:31;9.60;;;3.42;;
42912;SDS011;50720;54.324;18.558;2023-02-28T10:32:03;8.32;;;4.35;;
42912;SDS011;50720;54.324;18.558;2023-02-28T10:34:32;7.95;;;3.63;;
42912;SDS011;50720;54.324;18.558;2023-02-28T10:37:03;10.03;;;3.57;;
42912;SDS011;50720;54.324;18.558;2023-02-28T10:39:37;7.35;;;3.47;;
42912;SDS011;50720;54.324;18.558;2023-02-28T10:42:21;7.75;;;3.53;;
42912;SDS011;50720;54.324;18.558;2023-02-28T10:45:04;11.90;;;4.38;;
42912;SDS011;50720;54.324;18.558;2023-02-28T10:47:39;12.25;;;3.95;;
42912;SDS011;50720;54.324;18.558;2023-02-28T10:50:27;11.50;;;3.88;;
42912;SDS011;50720;54.324;18.558;2023-02-28T10:53:07;8.10;;;3.97;;
42912;SDS011;50720;54.324;18.558;2023-02-28T10:55:45;11.60;;;4.50;;
42912;SDS011;50720;54.324;18.558;2023-02-28T10:58:27;7.97;;;4.00;;
42912;SDS011;50720;54.324;18.558;2023-02-28T11:00:59;11.82;;;5.38;;
42912;SDS011;50720;54.324;18.558;2023-02-28T11:03:32;11.30;;;5.32;;
42912;SDS011;50720;54.324;18.558;2023-02-28T11:06:06;13.60;;;6.65;;
42912;SDS011;50720;54.324;18.558;2023-02-28T11:08:45;12.48;;;5.45;;
42912;SDS011;50720;54.324;18.558;2023-02-28T11:11:17;12.80;;;6.60;;
42912;SDS011;50720;54.324;18.558;2023-02-28T11:13:47;9.27;;;5.53;;
42912;SDS011;50720;54.324;18.558;2023-02-28T11:16:21;12.65;;;6.95;;
42912;SDS011;50720;54.324;18.558;2023-02-28T11:19:02;9.68;;;6.47;;
42912;SDS011;50720;54.324;18.558;2023-02-28T11:21:35;17.27;;;7.57;;
42912;SDS011;50720;54.324;18.558;2023-02-28T11:24:12;11.82;;;6.38;;
42912;SDS011;50720;54.324;18.558;2023-02-28T11:26:49;14.18;;;6.20;;
42912;SDS011;50720;54.324;18.558;2023-02-28T11:29:20;9.67;;;5.43;;
42912;SDS011;50720;54.324;18.558;2023-02-28T11:32:02;11.05;;;5.43;;
42912;SDS011;50720;54.324;18.558;2023-02-28T11:34:38;10.65;;;5.05;;
42912;SDS011;50720;54.324;18.558;2023-02-28T11:37:10;7.70;;;4.10;;
42912;SDS011;50720;54.324;18.558;2023-02-28T11:39:43;9.38;;;4.15;;
42912;SDS011;50720;54.324;18.558;2023-02-28T11:42:20;5.25;;;3.30;;
42912;SDS011;50720;54.324;18.558;2023-02-28T11:45:12;7.32;;;3.25;;
42912;SDS011;50720;54.324;18.558;2023-02-28T11:47:53;7.28;;;3.72;;
42912;SDS011;50720;54.324;18.558;2023-02-28T11:53:27;8.55;;;4.00;;
42912;SDS011;50720;54.324;18.558;2023-02-28T11:56:21;7.30;;;3.15;;
42912;SDS011;50720;54.324;18.558;2023-02-28T11:59:05;8.77;;;3.88;;
42912;SDS011;50720;54.324;18.558;2023-02-28T12:02:02;11.63;;;4.07;;
42912;SDS011;50720;54.324;18.558;2023-02-28T12:04:48;16.15;;;4.80;;
42912;SDS011;50720;54.324;18.558;2023-02-28T12:07:31;5.20;;;2.35;;
42912;SDS011;50720;54.324;18.558;2023-02-28T12:10:10;3.65;;;2.47;;
42912;SDS011;50720;54.324;18.558;2023-02-28T12:12:52;6.93;;;2.65;;
42912;SDS011;50720;54.324;18.558;2023-02-28T12:15:45;7.28;;;3.13;;
42912;SDS011;50720;54.324;18.558;2023-02-28T12:18:44;8.73;;;2.85;;
42912;SDS011;50720;54.324;18.558;2023-02-28T12:21:24;6.22;;;3.33;;
42912;SDS011;50720;54.324;18.558;2023-02-28T12:24:10;5.85;;;2.85;;
42912;SDS011;50720;54.324;18.558;2023-02-28T12:26:58;5.53;;;3.00;;
42912;SDS011;50720;54.324;18.558;2023-02-28T12:29:32;6.18;;;3.13;;
42912;SDS011;50720;54.324;18.558;2023-02-28T12:32:09;9.32;;;3.35;;
42912;SDS011;50720;54.324;18.558;2023-02-28T12:34:46;7.20;;;3.15;;
42912;SDS011;50720;54.324;18.558;2023-02-28T12:37:20;11.13;;;2.92;;
42912;SDS011;50720;54.324;18.558;2023-02-28T12:39:58;7.95;;;3.35;;
42912;SDS011;50720;54.324;18.558;2023-02-28T12:42:33;4.68;;;2.70;;
42912;SDS011;50720;54.324;18.558;2023-02-28T12:45:10;6.82;;;3.00;;
42912;SDS011;50720;54.324;18.558;2023-02-28T12:47:48;5.78;;;3.00;;
42912;SDS011;50720;54.324;18.558;2023-02-28T12:50:21;4.10;;;2.55;;
42912;SDS011;50720;54.324;18.558;2023-02-28T12:52:54;5.07;;;2.20;;
42912;SDS011;50720;54.324;18.558;2023-02-28T12:55:33;6.28;;;3.05;;
42912;SDS011;50720;54.324;18.558;2023-02-28T12:58:11;4.93;;;2.38;;
42912;SDS011;50720;54.324;18.558;2023-02-28T13:00:49;5.15;;;3.00;;
42912;SDS011;50720;54.324;18.558;2023-02-28T13:06:57;4.43;;;2.45;;
42912;SDS011;50720;54.324;18.558;2023-02-28T13:09:36;7.65;;;2.47;;
42912;SDS011;50720;54.324;18.558;2023-02-28T13:14:43;4.72;;;2.90;;
42912;SDS011;50720;54.324;18.558;2023-02-28T13:17:17;7.88;;;3.05;;
42912;SDS011;50720;54.324;18.558;2023-02-28T13:19:56;5.85;;;2.70;;
42912;SDS011;50720;54.324;18.558;2023-02-28T13:22:37;5.85;;;3.10;;
42912;SDS011;50720;54.324;18.558;2023-02-28T13:31:30;5.80;;;3.20;;
42912;SDS011;50720;54.324;18.558;2023-02-28T13:34:05;6.82;;;2.90;;
42912;SDS011;50720;54.324;18.558;2023-02-28T13:36:41;4.97;;;2.50;;
42912;SDS011;50720;54.324;18.558;2023-02-28T13:42:22;5.45;;;2.88;;
42912;SDS011;50720;54.324;18.558;2023-02-28T13:45:20;7.13;;;2.95;;
42912;SDS011;50720;54.324;18.558;2023-02-28T13:47:54;5.00;;;2.37;;
42912;SDS011;50720;54.324;18.558;2023-02-28T13:50:30;6.32;;;2.70;;
42912;SDS011;50720;54.324;18.558;2023-02-28T13:56:09;5.25;;;2.00;;
42912;SDS011;50720;54.324;18.558;2023-02-28T13:58:52;6.10;;;2.67;;
42912;SDS011;50720;54.324;18.558;2023-02-28T14:07:21;8.55;;;2.55;;
42912;SDS011;50720;54.324;18.558;2023-02-28T14:09:58;4.55;;;2.40;;
42912;SDS011;50720;54.324;18.558;2023-02-28T14:12:53;6.10;;;2.22;;
42912;SDS011;50720;54.324;18.558;2023-02-28T14:18:31;6.32;;;3.00;;
42912;SDS011;50720;54.324;18.558;2023-02-28T14:21:03;6.63;;;2.58;;
42912;SDS011;50720;54.324;18.558;2023-02-28T14:23:46;6.35;;;2.28;;
42912;SDS011;50720;54.324;18.558;2023-02-28T14:26:34;4.22;;;2.30;;
42912;SDS011;50720;54.324;18.558;2023-02-28T14:29:26;6.82;;;2.38;;
42912;SDS011;50720;54.324;18.558;2023-02-28T14:32:10;7.13;;;2.70;;
42912;SDS011;50720;54.324;18.558;2023-02-28T14:34:44;5.35;;;2.28;;
42912;SDS011;50720;54.324;18.558;2023-02-28T14:37:23;5.70;;;2.67;;
42912;SDS011;50720;54.324;18.558;2023-02-28T14:39:59;5.35;;;2.90;;
42912;SDS011;50720;54.324;18.558;2023-02-28T14:42:32;6.03;;;2.88;;
42912;SDS011;50720;54.324;18.558;2023-02-28T14:45:05;4.32;;;2.40;;
42912;SDS011;50720;54.324;18.558;2023-02-28T14:47:45;6.50;;;2.97;;
42912;SDS011;50720;54.324;18.558;2023-02-28T14:50:19;7.32;;;4.05;;
42912;SDS011;50720;54.324;18.558;2023-02-28T14:52:51;5.53;;;3.17;;
42912;SDS011;50720;54.324;18.558;2023-02-28T14:55:24;7.00;;;3.03;;
42912;SDS011;50720;54.324;18.558;2023-02-28T14:57:56;6.57;;;3.42;;
42912;SDS011;50720;54.324;18.558;2023-02-28T15:00:28;5.72;;;3.00;;
42912;SDS011;50720;54.324;18.558;2023-02-28T15:02:59;5.10;;;3.15;;
42912;SDS011;50720;54.324;18.558;2023-02-28T15:05:41;4.88;;;3.28;;
42912;SDS011;50720;54.324;18.558;2023-02-28T15:08:11;7.57;;;3.90;;
42912;SDS011;50720;54.324;18.558;2023-02-28T15:10:44;10.55;;;4.47;;
42912;SDS011;50720;54.324;18.558;2023-02-28T15:13:18;11.50;;;5.03;;
42912;SDS011;50720;54.324;18.558;2023-02-28T15:15:50;10.15;;;3.78;;
42912;SDS011;50720;54.324;18.558;2023-02-28T15:18:32;10.02;;;4.20;;
42912;SDS011;50720;54.324;18.558;2023-02-28T15:21:11;8.07;;;4.68;;
42912;SDS011;50720;54.324;18.558;2023-02-28T15:23:45;8.88;;;4.10;;
42912;SDS011;50720;54.324;18.558;2023-02-28T15:26:20;9.90;;;4.85;;
42912;SDS011;50720;54.324;18.558;2023-02-28T15:28:55;11.93;;;5.20;;
42912;SDS011;50720;54.324;18.558;2023-02-28T15:31:29;8.70;;;5.07;;
42912;SDS011;50720;54.324;18.558;2023-02-28T15:34:22;9.65;;;4.78;;
42912;SDS011;50720;54.324;18.558;2023-02-28T15:39:57;13.70;;;4.90;;
42912;SDS011;50720;54.324;18.558;2023-02-28T15:42:35;11.73;;;4.55;;